Avon, Massachusetts
Current Conditions -  °F | °C
As of 8:53 AM on Saturday 22 Nov 2014 (Local Time) from KOWD Reporting Station
Clear Clear  
Wind Chill: 21°   Ceiling: Unl
Heat Index: 30°   Visibility: 10mi
Dew Point: 12°   Wind: 12mph
Humidity: 47%   Direction: 230°SW
Pressure: 30.41"   Gusts: NA
Location:  42.13°N, 71.04°W
Report Text: KOWD 221353Z 23010KT 10SM CLR M01/M11 A3041 RMK AO2 SLP297 T10111111
Loading
Personal Weather Stations






























Interactive Weather Map New forecast layout! Learn more

10-Day Weather Forecast

Advertisements
Track Severe Weather on mobile